sensor_id;sensor_type;location;lat;lon;timestamp;P1;durP1;ratioP1;P2;durP2;ratioP2
42196;SDS011;27866;48.146;17.098;2023-05-07T00:00:54;4.57;;;2.25;;
42196;SDS011;27866;48.146;17.098;2023-05-07T00:05:06;4.60;;;2.78;;
42196;SDS011;27866;48.146;17.098;2023-05-07T00:09:18;4.07;;;2.53;;
42196;SDS011;27866;48.146;17.098;2023-05-07T00:13:29;3.03;;;2.28;;
42196;SDS011;27866;48.146;17.098;2023-05-07T00:17:45;3.78;;;2.55;;
42196;SDS011;27866;48.146;17.098;2023-05-07T00:21:56;4.72;;;2.90;;
42196;SDS011;27866;48.146;17.098;2023-05-07T00:26:08;5.80;;;3.08;;
42196;SDS011;27866;48.146;17.098;2023-05-07T00:30:19;5.00;;;3.08;;
42196;SDS011;27866;48.146;17.098;2023-05-07T00:34:31;6.78;;;3.10;;
42196;SDS011;27866;48.146;17.098;2023-05-07T00:38:42;4.97;;;3.50;;
42196;SDS011;27866;48.146;17.098;2023-05-07T00:42:53;6.93;;;3.42;;
42196;SDS011;27866;48.146;17.098;2023-05-07T00:47:08;5.38;;;3.63;;
42196;SDS011;27866;48.146;17.098;2023-05-07T00:51:19;6.57;;;4.20;;
42196;SDS011;27866;48.146;17.098;2023-05-07T00:55:31;7.28;;;4.28;;
42196;SDS011;27866;48.146;17.098;2023-05-07T00:59:43;6.93;;;4.18;;
42196;SDS011;27866;48.146;17.098;2023-05-07T01:03:54;6.78;;;4.40;;
42196;SDS011;27866;48.146;17.098;2023-05-07T01:08:06;7.53;;;3.90;;
42196;SDS011;27866;48.146;17.098;2023-05-07T01:12:17;6.10;;;4.10;;
42196;SDS011;27866;48.146;17.098;2023-05-07T01:16:28;8.57;;;4.28;;
42196;SDS011;27866;48.146;17.098;2023-05-07T01:20:40;10.20;;;4.53;;
42196;SDS011;27866;48.146;17.098;2023-05-07T01:24:52;6.90;;;4.20;;
42196;SDS011;27866;48.146;17.098;2023-05-07T01:29:04;6.75;;;4.07;;
42196;SDS011;27866;48.146;17.098;2023-05-07T01:33:18;6.38;;;4.28;;
42196;SDS011;27866;48.146;17.098;2023-05-07T01:37:32;8.02;;;4.03;;
42196;SDS011;27866;48.146;17.098;2023-05-07T01:41:44;6.03;;;4.10;;
42196;SDS011;27866;48.146;17.098;2023-05-07T01:45:57;7.10;;;4.53;;
42196;SDS011;27866;48.146;17.098;2023-05-07T01:50:09;9.90;;;4.53;;
42196;SDS011;27866;48.146;17.098;2023-05-07T01:54:24;5.65;;;4.78;;
42196;SDS011;27866;48.146;17.098;2023-05-07T01:58:41;6.82;;;4.63;;
42196;SDS011;27866;48.146;17.098;2023-05-07T02:02:53;7.05;;;5.28;;
42196;SDS011;27866;48.146;17.098;2023-05-07T02:07:16;5.85;;;5.00;;
42196;SDS011;27866;48.146;17.098;2023-05-07T02:11:27;7.75;;;5.63;;
42196;SDS011;27866;48.146;17.098;2023-05-07T02:15:38;8.70;;;5.50;;
42196;SDS011;27866;48.146;17.098;2023-05-07T02:19:50;7.20;;;5.68;;
42196;SDS011;27866;48.146;17.098;2023-05-07T02:24:01;8.20;;;5.70;;
42196;SDS011;27866;48.146;17.098;2023-05-07T02:28:12;6.63;;;5.28;;
42196;SDS011;27866;48.146;17.098;2023-05-07T02:32:35;7.55;;;5.10;;
42196;SDS011;27866;48.146;17.098;2023-05-07T02:36:47;7.55;;;4.78;;
42196;SDS011;27866;48.146;17.098;2023-05-07T02:41:02;10.55;;;5.97;;
42196;SDS011;27866;48.146;17.098;2023-05-07T02:45:13;9.30;;;7.30;;
42196;SDS011;27866;48.146;17.098;2023-05-07T02:49:26;12.90;;;6.93;;
42196;SDS011;27866;48.146;17.098;2023-05-07T02:53:38;9.52;;;7.50;;
42196;SDS011;27866;48.146;17.098;2023-05-07T02:57:49;10.90;;;7.97;;
42196;SDS011;27866;48.146;17.098;2023-05-07T03:02:00;11.10;;;7.93;;
42196;SDS011;27866;48.146;17.098;2023-05-07T03:06:12;16.08;;;9.40;;
42196;SDS011;27866;48.146;17.098;2023-05-07T03:10:23;11.13;;;9.13;;
42196;SDS011;27866;48.146;17.098;2023-05-07T03:14:34;12.88;;;9.38;;
42196;SDS011;27866;48.146;17.098;2023-05-07T03:18:45;13.98;;;9.90;;
42196;SDS011;27866;48.146;17.098;2023-05-07T03:22:57;11.90;;;9.40;;
42196;SDS011;27866;48.146;17.098;2023-05-07T03:27:08;13.57;;;10.27;;
42196;SDS011;27866;48.146;17.098;2023-05-07T03:31:19;13.07;;;9.55;;
42196;SDS011;27866;48.146;17.098;2023-05-07T03:35:30;15.98;;;9.95;;
42196;SDS011;27866;48.146;17.098;2023-05-07T03:39:42;14.18;;;9.80;;
42196;SDS011;27866;48.146;17.098;2023-05-07T03:43:53;18.90;;;10.43;;
42196;SDS011;27866;48.146;17.098;2023-05-07T03:48:04;12.65;;;9.45;;
42196;SDS011;27866;48.146;17.098;2023-05-07T03:52:16;13.40;;;9.35;;
42196;SDS011;27866;48.146;17.098;2023-05-07T03:56:32;13.38;;;8.85;;
42196;SDS011;27866;48.146;17.098;2023-05-07T04:00:44;13.90;;;10.00;;
42196;SDS011;27866;48.146;17.098;2023-05-07T04:05:04;16.20;;;11.13;;
42196;SDS011;27866;48.146;17.098;2023-05-07T04:09:15;16.08;;;10.88;;
42196;SDS011;27866;48.146;17.098;2023-05-07T04:13:26;14.75;;;11.05;;
42196;SDS011;27866;48.146;17.098;2023-05-07T04:17:38;16.70;;;10.73;;
42196;SDS011;27866;48.146;17.098;2023-05-07T04:21:51;14.48;;;11.77;;
42196;SDS011;27866;48.146;17.098;2023-05-07T04:26:02;15.07;;;11.10;;
42196;SDS011;27866;48.146;17.098;2023-05-07T04:30:19;13.00;;;10.38;;
42196;SDS011;27866;48.146;17.098;2023-05-07T04:34:30;14.43;;;11.27;;
42196;SDS011;27866;48.146;17.098;2023-05-07T04:38:44;13.73;;;10.10;;
42196;SDS011;27866;48.146;17.098;2023-05-07T04:42:57;12.50;;;9.63;;
42196;SDS011;27866;48.146;17.098;2023-05-07T04:47:08;11.15;;;9.18;;
42196;SDS011;27866;48.146;17.098;2023-05-07T04:51:20;13.93;;;9.93;;
42196;SDS011;27866;48.146;17.098;2023-05-07T04:55:31;11.68;;;9.18;;
42196;SDS011;27866;48.146;17.098;2023-05-07T04:59:43;16.58;;;9.52;;
42196;SDS011;27866;48.146;17.098;2023-05-07T05:03:55;13.48;;;10.07;;
42196;SDS011;27866;48.146;17.098;2023-05-07T05:08:06;13.02;;;9.32;;
42196;SDS011;27866;48.146;17.098;2023-05-07T05:12:21;11.45;;;9.10;;
42196;SDS011;27866;48.146;17.098;2023-05-07T05:16:33;13.02;;;9.85;;
42196;SDS011;27866;48.146;17.098;2023-05-07T05:20:44;10.20;;;8.13;;
42196;SDS011;27866;48.146;17.098;2023-05-07T05:24:56;10.80;;;8.57;;
42196;SDS011;27866;48.146;17.098;2023-05-07T05:29:08;13.00;;;8.77;;
42196;SDS011;27866;48.146;17.098;2023-05-07T05:33:23;10.98;;;8.32;;
42196;SDS011;27866;48.146;17.098;2023-05-07T05:37:34;11.98;;;9.15;;
42196;SDS011;27866;48.146;17.098;2023-05-07T05:41:48;12.67;;;10.13;;
42196;SDS011;27866;48.146;17.098;2023-05-07T05:46:00;12.10;;;9.10;;
42196;SDS011;27866;48.146;17.098;2023-05-07T05:50:11;13.32;;;9.30;;
42196;SDS011;27866;48.146;17.098;2023-05-07T05:54:23;10.60;;;8.88;;
42196;SDS011;27866;48.146;17.098;2023-05-07T05:58:34;12.18;;;9.50;;
42196;SDS011;27866;48.146;17.098;2023-05-07T06:02:49;14.68;;;10.07;;
42196;SDS011;27866;48.146;17.098;2023-05-07T06:07:06;14.30;;;10.90;;
42196;SDS011;27866;48.146;17.098;2023-05-07T06:11:17;17.20;;;10.93;;
42196;SDS011;27866;48.146;17.098;2023-05-07T06:15:30;15.27;;;10.93;;
42196;SDS011;27866;48.146;17.098;2023-05-07T06:19:47;13.32;;;10.93;;
42196;SDS011;27866;48.146;17.098;2023-05-07T06:24:01;13.23;;;10.38;;
42196;SDS011;27866;48.146;17.098;2023-05-07T06:28:13;13.50;;;10.57;;
42196;SDS011;27866;48.146;17.098;2023-05-07T06:32:26;12.77;;;9.95;;
42196;SDS011;27866;48.146;17.098;2023-05-07T06:36:38;15.90;;;11.35;;
42196;SDS011;27866;48.146;17.098;2023-05-07T06:41:01;15.70;;;12.25;;
42196;SDS011;27866;48.146;17.098;2023-05-07T06:45:12;18.98;;;12.95;;
42196;SDS011;27866;48.146;17.098;2023-05-07T06:49:23;21.50;;;14.30;;
42196;SDS011;27866;48.146;17.098;2023-05-07T06:53:35;23.30;;;16.10;;
42196;SDS011;27866;48.146;17.098;2023-05-07T06:57:47;22.50;;;16.05;;
42196;SDS011;27866;48.146;17.098;2023-05-07T07:01:59;22.52;;;16.80;;
42196;SDS011;27866;48.146;17.098;2023-05-07T07:06:10;22.67;;;17.00;;
42196;SDS011;27866;48.146;17.098;2023-05-07T07:10:22;22.98;;;17.10;;
42196;SDS011;27866;48.146;17.098;2023-05-07T07:14:35;22.83;;;17.40;;
42196;SDS011;27866;48.146;17.098;2023-05-07T07:18:46;21.55;;;15.40;;
42196;SDS011;27866;48.146;17.098;2023-05-07T07:22:58;21.45;;;16.30;;
42196;SDS011;27866;48.146;17.098;2023-05-07T07:27:10;22.52;;;16.00;;
42196;SDS011;27866;48.146;17.098;2023-05-07T07:31:22;21.77;;;15.82;;
42196;SDS011;27866;48.146;17.098;2023-05-07T07:35:34;17.70;;;14.43;;
42196;SDS011;27866;48.146;17.098;2023-05-07T07:39:47;17.33;;;13.83;;
42196;SDS011;27866;48.146;17.098;2023-05-07T07:43:59;18.55;;;14.10;;
42196;SDS011;27866;48.146;17.098;2023-05-07T07:48:11;17.75;;;14.27;;
42196;SDS011;27866;48.146;17.098;2023-05-07T07:52:22;17.40;;;13.82;;
42196;SDS011;27866;48.146;17.098;2023-05-07T07:56:33;16.63;;;12.48;;
42196;SDS011;27866;48.146;17.098;2023-05-07T08:00:46;17.35;;;12.88;;
42196;SDS011;27866;48.146;17.098;2023-05-07T08:04:59;17.95;;;13.50;;
42196;SDS011;27866;48.146;17.098;2023-05-07T08:09:11;16.08;;;12.57;;
42196;SDS011;27866;48.146;17.098;2023-05-07T08:13:24;17.85;;;12.85;;
42196;SDS011;27866;48.146;17.098;2023-05-07T08:17:36;16.90;;;12.93;;
42196;SDS011;27866;48.146;17.098;2023-05-07T08:21:47;14.52;;;11.57;;
42196;SDS011;27866;48.146;17.098;2023-05-07T08:30:14;16.40;;;11.77;;
42196;SDS011;27866;48.146;17.098;2023-05-07T08:34:27;20.55;;;11.70;;
42196;SDS011;27866;48.146;17.098;2023-05-07T08:38:40;13.90;;;10.47;;
42196;SDS011;27866;48.146;17.098;2023-05-07T08:42:54;12.07;;;9.93;;
42196;SDS011;27866;48.146;17.098;2023-05-07T08:47:07;11.57;;;8.50;;
42196;SDS011;27866;48.146;17.098;2023-05-07T08:51:20;9.47;;;7.70;;
42196;SDS011;27866;48.146;17.098;2023-05-07T08:55:32;13.55;;;7.80;;
42196;SDS011;27866;48.146;17.098;2023-05-07T08:59:44;15.57;;;8.52;;
42196;SDS011;27866;48.146;17.098;2023-05-07T09:03:55;10.57;;;7.82;;
42196;SDS011;27866;48.146;17.098;2023-05-07T09:08:08;9.98;;;7.82;;
42196;SDS011;27866;48.146;17.098;2023-05-07T09:12:22;8.98;;;7.90;;
42196;SDS011;27866;48.146;17.098;2023-05-07T09:16:33;12.15;;;7.82;;
42196;SDS011;27866;48.146;17.098;2023-05-07T09:20:45;10.98;;;7.57;;
42196;SDS011;27866;48.146;17.098;2023-05-07T09:24:59;9.23;;;6.82;;
42196;SDS011;27866;48.146;17.098;2023-05-07T09:29:11;8.85;;;6.85;;
42196;SDS011;27866;48.146;17.098;2023-05-07T09:33:26;9.02;;;6.75;;
42196;SDS011;27866;48.146;17.098;2023-05-07T09:37:38;9.57;;;6.70;;
42196;SDS011;27866;48.146;17.098;2023-05-07T09:41:51;7.85;;;6.50;;
42196;SDS011;27866;48.146;17.098;2023-05-07T09:46:16;8.13;;;5.95;;
42196;SDS011;27866;48.146;17.098;2023-05-07T09:50:36;6.43;;;5.10;;
42196;SDS011;27866;48.146;17.098;2023-05-07T09:54:58;5.68;;;5.13;;
42196;SDS011;27866;48.146;17.098;2023-05-07T09:59:14;7.90;;;5.20;;
42196;SDS011;27866;48.146;17.098;2023-05-07T10:03:27;6.97;;;5.43;;
42196;SDS011;27866;48.146;17.098;2023-05-07T10:07:47;7.95;;;5.40;;
42196;SDS011;27866;48.146;17.098;2023-05-07T10:12:01;6.50;;;5.63;;
42196;SDS011;27866;48.146;17.098;2023-05-07T10:16:14;5.75;;;5.15;;
42196;SDS011;27866;48.146;17.098;2023-05-07T10:20:29;6.13;;;5.00;;
42196;SDS011;27866;48.146;17.098;2023-05-07T10:24:44;7.03;;;5.47;;
42196;SDS011;27866;48.146;17.098;2023-05-07T10:29:05;7.53;;;6.07;;
42196;SDS011;27866;48.146;17.098;2023-05-07T10:33:47;6.45;;;5.50;;
42196;SDS011;27866;48.146;17.098;2023-05-07T10:38:04;5.82;;;4.60;;
42196;SDS011;27866;48.146;17.098;2023-05-07T10:42:18;5.97;;;5.38;;
42196;SDS011;27866;48.146;17.098;2023-05-07T10:46:34;6.75;;;5.13;;
42196;SDS011;27866;48.146;17.098;2023-05-07T10:51:22;6.07;;;5.32;;
42196;SDS011;27866;48.146;17.098;2023-05-07T10:55:38;4.80;;;4.30;;
42196;SDS011;27866;48.146;17.098;2023-05-07T10:59:55;5.57;;;4.72;;
42196;SDS011;27866;48.146;17.098;2023-05-07T11:04:12;4.55;;;3.85;;
42196;SDS011;27866;48.146;17.098;2023-05-07T11:08:57;5.75;;;3.20;;
42196;SDS011;27866;48.146;17.098;2023-05-07T11:14:02;3.95;;;3.38;;
42196;SDS011;27866;48.146;17.098;2023-05-07T11:18:26;3.40;;;2.75;;
42196;SDS011;27866;48.146;17.098;2023-05-07T11:28:14;5.07;;;2.72;;
42196;SDS011;27866;48.146;17.098;2023-05-07T11:32:42;4.38;;;2.70;;
42196;SDS011;27866;48.146;17.098;2023-05-07T11:36:57;3.10;;;2.60;;
42196;SDS011;27866;48.146;17.098;2023-05-07T11:41:22;3.25;;;2.67;;
42196;SDS011;27866;48.146;17.098;2023-05-07T11:45:46;3.80;;;2.28;;
42196;SDS011;27866;48.146;17.098;2023-05-07T11:50:02;2.72;;;2.45;;
42196;SDS011;27866;48.146;17.098;2023-05-07T11:54:16;3.92;;;2.42;;
42196;SDS011;27866;48.146;17.098;2023-05-07T11:58:27;4.60;;;2.25;;
42196;SDS011;27866;48.146;17.098;2023-05-07T12:02:39;3.90;;;2.30;;
42196;SDS011;27866;48.146;17.098;2023-05-07T12:11:10;2.88;;;2.10;;
42196;SDS011;27866;48.146;17.098;2023-05-07T12:15:34;6.97;;;2.40;;
42196;SDS011;27866;48.146;17.098;2023-05-07T12:19:46;4.18;;;2.30;;
42196;SDS011;27866;48.146;17.098;2023-05-07T12:23:57;3.25;;;2.40;;
42196;SDS011;27866;48.146;17.098;2023-05-07T12:28:12;2.42;;;2.22;;
42196;SDS011;27866;48.146;17.098;2023-05-07T12:32:32;3.45;;;2.00;;
42196;SDS011;27866;48.146;17.098;2023-05-07T12:36:47;4.90;;;2.22;;
42196;SDS011;27866;48.146;17.098;2023-05-07T12:40:59;3.83;;;2.15;;
42196;SDS011;27866;48.146;17.098;2023-05-07T12:49:22;2.70;;;1.90;;
42196;SDS011;27866;48.146;17.098;2023-05-07T12:53:39;2.10;;;1.90;;
42196;SDS011;27866;48.146;17.098;2023-05-07T12:57:52;2.60;;;1.58;;
42196;SDS011;27866;48.146;17.098;2023-05-07T13:02:04;5.80;;;1.90;;
42196;SDS011;27866;48.146;17.098;2023-05-07T13:06:16;3.47;;;1.90;;
42196;SDS011;27866;48.146;17.098;2023-05-07T13:14:39;2.35;;;1.98;;
42196;SDS011;27866;48.146;17.098;2023-05-07T13:23:01;2.50;;;1.60;;
42196;SDS011;27866;48.146;17.098;2023-05-07T13:27:14;2.60;;;2.00;;
42196;SDS011;27866;48.146;17.098;2023-05-07T13:31:25;2.80;;;1.88;;
42196;SDS011;27866;48.146;17.098;2023-05-07T13:35:37;2.53;;;1.95;;
42196;SDS011;27866;48.146;17.098;2023-05-07T13:39:48;2.25;;;2.00;;
42196;SDS011;27866;48.146;17.098;2023-05-07T13:43:59;4.72;;;2.10;;
42196;SDS011;27866;48.146;17.098;2023-05-07T13:48:11;2.85;;;2.00;;
42196;SDS011;27866;48.146;17.098;2023-05-07T13:52:22;2.33;;;1.90;;
42196;SDS011;27866;48.146;17.098;2023-05-07T13:56:33;3.13;;;2.03;;
42196;SDS011;27866;48.146;17.098;2023-05-07T14:00:44;2.20;;;1.90;;
42196;SDS011;27866;48.146;17.098;2023-05-07T14:04:55;2.33;;;1.90;;
42196;SDS011;27866;48.146;17.098;2023-05-07T14:09:07;2.73;;;2.00;;
42196;SDS011;27866;48.146;17.098;2023-05-07T14:13:18;3.30;;;2.37;;
42196;SDS011;27866;48.146;17.098;2023-05-07T14:17:30;5.68;;;2.13;;
42196;SDS011;27866;48.146;17.098;2023-05-07T14:21:41;2.28;;;1.80;;
42196;SDS011;27866;48.146;17.098;2023-05-07T14:25:52;2.90;;;1.73;;
42196;SDS011;27866;48.146;17.098;2023-05-07T14:30:04;2.53;;;1.60;;
42196;SDS011;27866;48.146;17.098;2023-05-07T14:34:16;3.78;;;1.60;;
42196;SDS011;27866;48.146;17.098;2023-05-07T14:38:27;2.60;;;2.00;;
42196;SDS011;27866;48.146;17.098;2023-05-07T14:42:38;3.55;;;1.77;;
42196;SDS011;27866;48.146;17.098;2023-05-07T14:46:50;4.05;;;2.00;;
42196;SDS011;27866;48.146;17.098;2023-05-07T14:51:01;4.25;;;2.10;;
42196;SDS011;27866;48.146;17.098;2023-05-07T14:55:12;3.92;;;2.03;;
42196;SDS011;27866;48.146;17.098;2023-05-07T14:59:23;2.15;;;1.90;;
42196;SDS011;27866;48.146;17.098;2023-05-07T15:03:35;3.45;;;2.20;;
42196;SDS011;27866;48.146;17.098;2023-05-07T15:07:46;2.65;;;1.85;;
42196;SDS011;27866;48.146;17.098;2023-05-07T15:11:57;5.60;;;2.03;;
42196;SDS011;27866;48.146;17.098;2023-05-07T15:16:09;2.70;;;2.10;;
42196;SDS011;27866;48.146;17.098;2023-05-07T15:20:20;3.22;;;2.55;;
42196;SDS011;27866;48.146;17.098;2023-05-07T15:24:31;3.35;;;2.40;;
42196;SDS011;27866;48.146;17.098;2023-05-07T15:28:43;3.78;;;2.60;;
42196;SDS011;27866;48.146;17.098;2023-05-07T15:32:54;4.85;;;2.60;;
42196;SDS011;27866;48.146;17.098;2023-05-07T15:37:05;3.80;;;2.85;;
42196;SDS011;27866;48.146;17.098;2023-05-07T15:41:17;3.70;;;2.42;;
42196;SDS011;27866;48.146;17.098;2023-05-07T15:45:28;3.17;;;2.40;;
42196;SDS011;27866;48.146;17.098;2023-05-07T15:49:40;5.20;;;2.60;;
42196;SDS011;27866;48.146;17.098;2023-05-07T15:53:52;3.55;;;2.85;;
42196;SDS011;27866;48.146;17.098;2023-05-07T15:58:03;3.30;;;2.65;;
42196;SDS011;27866;48.146;17.098;2023-05-07T16:02:15;7.32;;;4.30;;
42196;SDS011;27866;48.146;17.098;2023-05-07T16:06:27;8.88;;;4.60;;
42196;SDS011;27866;48.146;17.098;2023-05-07T16:10:38;4.07;;;2.88;;
42196;SDS011;27866;48.146;17.098;2023-05-07T16:14:49;3.78;;;2.75;;
42196;SDS011;27866;48.146;17.098;2023-05-07T16:19:01;5.30;;;3.10;;
42196;SDS011;27866;48.146;17.098;2023-05-07T16:23:12;7.80;;;3.38;;
42196;SDS011;27866;48.146;17.098;2023-05-07T16:27:23;3.90;;;3.10;;
42196;SDS011;27866;48.146;17.098;2023-05-07T16:31:35;5.95;;;3.05;;
42196;SDS011;27866;48.146;17.098;2023-05-07T16:35:52;4.53;;;2.70;;
42196;SDS011;27866;48.146;17.098;2023-05-07T16:40:03;3.35;;;2.83;;
42196;SDS011;27866;48.146;17.098;2023-05-07T16:44:16;3.50;;;3.03;;
42196;SDS011;27866;48.146;17.098;2023-05-07T16:48:28;6.72;;;3.35;;
42196;SDS011;27866;48.146;17.098;2023-05-07T16:52:39;5.50;;;3.65;;
42196;SDS011;27866;48.146;17.098;2023-05-07T16:56:50;4.10;;;3.05;;
42196;SDS011;27866;48.146;17.098;2023-05-07T17:01:01;3.50;;;2.67;;
42196;SDS011;27866;48.146;17.098;2023-05-07T17:05:13;4.22;;;2.92;;
42196;SDS011;27866;48.146;17.098;2023-05-07T17:09:24;3.60;;;3.03;;
42196;SDS011;27866;48.146;17.098;2023-05-07T17:13:36;6.15;;;3.38;;
42196;SDS011;27866;48.146;17.098;2023-05-07T17:17:47;5.00;;;3.40;;
42196;SDS011;27866;48.146;17.098;2023-05-07T17:21:58;4.22;;;3.10;;
42196;SDS011;27866;48.146;17.098;2023-05-07T17:26:10;6.47;;;3.25;;
42196;SDS011;27866;48.146;17.098;2023-05-07T17:30:23;4.65;;;3.72;;
42196;SDS011;27866;48.146;17.098;2023-05-07T17:34:34;7.25;;;3.83;;
42196;SDS011;27866;48.146;17.098;2023-05-07T17:38:45;5.47;;;3.65;;
42196;SDS011;27866;48.146;17.098;2023-05-07T17:42:57;4.30;;;3.50;;
42196;SDS011;27866;48.146;17.098;2023-05-07T17:47:08;6.22;;;4.50;;
42196;SDS011;27866;48.146;17.098;2023-05-07T17:51:19;7.28;;;4.88;;
42196;SDS011;27866;48.146;17.098;2023-05-07T17:55:30;5.70;;;5.10;;
42196;SDS011;27866;48.146;17.098;2023-05-07T17:59:49;7.43;;;5.72;;
42196;SDS011;27866;48.146;17.098;2023-05-07T18:04:00;7.57;;;6.10;;
42196;SDS011;27866;48.146;17.098;2023-05-07T18:08:12;11.77;;;7.07;;
42196;SDS011;27866;48.146;17.098;2023-05-07T18:12:23;8.13;;;6.65;;
42196;SDS011;27866;48.146;17.098;2023-05-07T18:16:35;10.27;;;7.50;;
42196;SDS011;27866;48.146;17.098;2023-05-07T18:20:49;10.30;;;8.00;;
42196;SDS011;27866;48.146;17.098;2023-05-07T18:25:00;12.15;;;8.10;;
42196;SDS011;27866;48.146;17.098;2023-05-07T18:29:13;11.73;;;8.23;;
42196;SDS011;27866;48.146;17.098;2023-05-07T18:33:24;10.57;;;8.73;;
42196;SDS011;27866;48.146;17.098;2023-05-07T18:37:35;11.35;;;8.55;;
42196;SDS011;27866;48.146;17.098;2023-05-07T18:41:46;12.88;;;9.75;;
42196;SDS011;27866;48.146;17.098;2023-05-07T18:46:00;12.45;;;9.90;;
42196;SDS011;27866;48.146;17.098;2023-05-07T18:50:11;14.13;;;10.00;;
42196;SDS011;27866;48.146;17.098;2023-05-07T18:54:23;15.57;;;10.18;;
42196;SDS011;27866;48.146;17.098;2023-05-07T18:58:34;14.15;;;10.38;;
42196;SDS011;27866;48.146;17.098;2023-05-07T19:02:45;16.30;;;11.13;;
42196;SDS011;27866;48.146;17.098;2023-05-07T19:06:56;12.13;;;9.60;;
42196;SDS011;27866;48.146;17.098;2023-05-07T19:11:08;13.73;;;10.40;;
42196;SDS011;27866;48.146;17.098;2023-05-07T19:15:19;13.80;;;10.38;;
42196;SDS011;27866;48.146;17.098;2023-05-07T19:19:32;12.68;;;10.68;;
42196;SDS011;27866;48.146;17.098;2023-05-07T19:23:43;13.63;;;10.65;;
42196;SDS011;27866;48.146;17.098;2023-05-07T19:27:55;16.67;;;12.10;;
42196;SDS011;27866;48.146;17.098;2023-05-07T19:32:07;15.85;;;11.60;;
42196;SDS011;27866;48.146;17.098;2023-05-07T19:36:18;15.32;;;11.70;;
42196;SDS011;27866;48.146;17.098;2023-05-07T19:40:30;14.10;;;11.48;;
42196;SDS011;27866;48.146;17.098;2023-05-07T19:44:42;16.02;;;11.20;;
42196;SDS011;27866;48.146;17.098;2023-05-07T19:48:53;15.02;;;11.07;;
42196;SDS011;27866;48.146;17.098;2023-05-07T19:53:04;15.02;;;11.57;;
42196;SDS011;27866;48.146;17.098;2023-05-07T19:57:15;15.90;;;11.98;;
42196;SDS011;27866;48.146;17.098;2023-05-07T20:01:26;15.85;;;11.57;;
42196;SDS011;27866;48.146;17.098;2023-05-07T20:05:38;17.05;;;11.95;;
42196;SDS011;27866;48.146;17.098;2023-05-07T20:09:49;17.80;;;11.63;;
42196;SDS011;27866;48.146;17.098;2023-05-07T20:14:01;16.42;;;12.35;;
42196;SDS011;27866;48.146;17.098;2023-05-07T20:18:13;20.08;;;13.05;;
42196;SDS011;27866;48.146;17.098;2023-05-07T20:22:28;20.35;;;12.63;;
42196;SDS011;27866;48.146;17.098;2023-05-07T20:26:40;18.00;;;12.45;;
42196;SDS011;27866;48.146;17.098;2023-05-07T20:30:52;21.30;;;13.18;;
42196;SDS011;27866;48.146;17.098;2023-05-07T20:35:04;16.48;;;12.25;;
42196;SDS011;27866;48.146;17.098;2023-05-07T20:39:15;18.45;;;13.73;;
42196;SDS011;27866;48.146;17.098;2023-05-07T20:43:27;18.83;;;12.77;;
42196;SDS011;27866;48.146;17.098;2023-05-07T20:47:39;16.10;;;12.50;;
42196;SDS011;27866;48.146;17.098;2023-05-07T20:51:50;18.70;;;13.82;;
42196;SDS011;27866;48.146;17.098;2023-05-07T20:56:02;18.90;;;14.07;;
42196;SDS011;27866;48.146;17.098;2023-05-07T21:00:14;16.63;;;13.07;;
42196;SDS011;27866;48.146;17.098;2023-05-07T21:04:26;18.67;;;12.40;;
42196;SDS011;27866;48.146;17.098;2023-05-07T21:08:39;18.48;;;11.63;;
42196;SDS011;27866;48.146;17.098;2023-05-07T21:12:50;15.50;;;11.63;;
42196;SDS011;27866;48.146;17.098;2023-05-07T21:17:01;17.13;;;11.98;;
42196;SDS011;27866;48.146;17.098;2023-05-07T21:21:15;14.98;;;11.50;;
42196;SDS011;27866;48.146;17.098;2023-05-07T21:25:26;15.27;;;10.88;;
42196;SDS011;27866;48.146;17.098;2023-05-07T21:29:38;14.55;;;11.15;;
42196;SDS011;27866;48.146;17.098;2023-05-07T21:33:49;17.17;;;11.27;;
42196;SDS011;27866;48.146;17.098;2023-05-07T21:38:02;13.80;;;10.35;;
42196;SDS011;27866;48.146;17.098;2023-05-07T21:42:13;15.23;;;11.02;;
42196;SDS011;27866;48.146;17.098;2023-05-07T21:46:24;15.90;;;11.00;;
42196;SDS011;27866;48.146;17.098;2023-05-07T21:50:36;16.13;;;11.68;;
42196;SDS011;27866;48.146;17.098;2023-05-07T21:54:47;15.63;;;11.23;;
42196;SDS011;27866;48.146;17.098;2023-05-07T21:59:03;15.50;;;10.35;;
42196;SDS011;27866;48.146;17.098;2023-05-07T22:03:14;13.90;;;10.00;;
42196;SDS011;27866;48.146;17.098;2023-05-07T22:07:25;14.13;;;9.75;;
42196;SDS011;27866;48.146;17.098;2023-05-07T22:11:36;14.43;;;10.02;;
42196;SDS011;27866;48.146;17.098;2023-05-07T22:15:48;15.15;;;11.20;;
42196;SDS011;27866;48.146;17.098;2023-05-07T22:19:59;14.27;;;9.90;;
42196;SDS011;27866;48.146;17.098;2023-05-07T22:24:10;13.75;;;9.98;;
42196;SDS011;27866;48.146;17.098;2023-05-07T22:28:21;13.70;;;9.55;;
42196;SDS011;27866;48.146;17.098;2023-05-07T22:32:33;12.20;;;9.90;;
42196;SDS011;27866;48.146;17.098;2023-05-07T22:36:45;14.43;;;9.57;;
42196;SDS011;27866;48.146;17.098;2023-05-07T22:40:57;11.13;;;8.70;;
42196;SDS011;27866;48.146;17.098;2023-05-07T22:45:09;12.80;;;9.48;;
42196;SDS011;27866;48.146;17.098;2023-05-07T22:49:21;12.05;;;8.32;;
42196;SDS011;27866;48.146;17.098;2023-05-07T22:53:32;12.25;;;9.13;;
42196;SDS011;27866;48.146;17.098;2023-05-07T22:57:43;10.35;;;7.95;;
42196;SDS011;27866;48.146;17.098;2023-05-07T23:01:55;11.98;;;8.02;;
42196;SDS011;27866;48.146;17.098;2023-05-07T23:06:07;10.20;;;7.60;;
42196;SDS011;27866;48.146;17.098;2023-05-07T23:10:18;11.07;;;7.68;;
42196;SDS011;27866;48.146;17.098;2023-05-07T23:14:29;9.30;;;7.68;;
42196;SDS011;27866;48.146;17.098;2023-05-07T23:18:41;10.43;;;7.03;;
42196;SDS011;27866;48.146;17.098;2023-05-07T23:22:52;12.90;;;7.90;;
42196;SDS011;27866;48.146;17.098;2023-05-07T23:27:06;10.13;;;7.07;;
42196;SDS011;27866;48.146;17.098;2023-05-07T23:31:18;9.38;;;7.53;;
42196;SDS011;27866;48.146;17.098;2023-05-07T23:35:29;12.07;;;7.90;;
42196;SDS011;27866;48.146;17.098;2023-05-07T23:39:40;10.45;;;7.90;;
42196;SDS011;27866;48.146;17.098;2023-05-07T23:43:51;10.55;;;7.43;;
42196;SDS011;27866;48.146;17.098;2023-05-07T23:48:02;10.93;;;7.53;;
42196;SDS011;27866;48.146;17.098;2023-05-07T23:52:14;10.98;;;7.65;;
42196;SDS011;27866;48.146;17.098;2023-05-07T23:56:25;10.75;;;8.00;;
